sensor_id;sensor_type;location;lat;lon;timestamp;P1;durP1;ratioP1;P2;durP2;ratioP2
44486;SDS011;30191;50.908;6.962;2024-01-11T00:01:17;34.17;;;18.73;;
44486;SDS011;30191;50.908;6.962;2024-01-11T00:03:43;32.28;;;18.10;;
44486;SDS011;30191;50.908;6.962;2024-01-11T00:06:08;33.08;;;19.48;;
44486;SDS011;30191;50.908;6.962;2024-01-11T00:08:34;34.33;;;18.45;;
44486;SDS011;30191;50.908;6.962;2024-01-11T00:11:00;32.75;;;18.75;;
44486;SDS011;30191;50.908;6.962;2024-01-11T00:13:25;32.03;;;18.73;;
44486;SDS011;30191;50.908;6.962;2024-01-11T00:15:51;31.05;;;18.63;;
44486;SDS011;30191;50.908;6.962;2024-01-11T00:18:18;31.58;;;18.40;;
44486;SDS011;30191;50.908;6.962;2024-01-11T00:20:44;33.28;;;17.98;;
44486;SDS011;30191;50.908;6.962;2024-01-11T00:23:10;34.20;;;18.50;;
44486;SDS011;30191;50.908;6.962;2024-01-11T00:25:35;33.13;;;19.13;;
44486;SDS011;30191;50.908;6.962;2024-01-11T00:28:01;33.20;;;19.48;;
44486;SDS011;30191;50.908;6.962;2024-01-11T00:30:27;34.88;;;19.40;;
44486;SDS011;30191;50.908;6.962;2024-01-11T00:32:53;36.38;;;19.35;;
44486;SDS011;30191;50.908;6.962;2024-01-11T00:35:18;31.40;;;18.70;;
44486;SDS011;30191;50.908;6.962;2024-01-11T00:37:44;34.38;;;18.58;;
44486;SDS011;30191;50.908;6.962;2024-01-11T00:40:10;33.17;;;19.17;;
44486;SDS011;30191;50.908;6.962;2024-01-11T00:42:36;37.65;;;20.10;;
44486;SDS011;30191;50.908;6.962;2024-01-11T00:45:01;31.40;;;18.63;;
44486;SDS011;30191;50.908;6.962;2024-01-11T00:47:27;35.38;;;18.67;;
44486;SDS011;30191;50.908;6.962;2024-01-11T00:49:53;32.40;;;18.35;;
44486;SDS011;30191;50.908;6.962;2024-01-11T00:52:19;33.08;;;19.48;;
44486;SDS011;30191;50.908;6.962;2024-01-11T00:54:44;36.28;;;18.75;;
44486;SDS011;30191;50.908;6.962;2024-01-11T00:57:10;35.15;;;19.23;;
44486;SDS011;30191;50.908;6.962;2024-01-11T00:59:35;32.42;;;18.67;;
44486;SDS011;30191;50.908;6.962;2024-01-11T01:02:01;34.20;;;19.17;;
44486;SDS011;30191;50.908;6.962;2024-01-11T01:04:27;32.83;;;18.65;;
44486;SDS011;30191;50.908;6.962;2024-01-11T01:06:52;32.33;;;18.52;;
44486;SDS011;30191;50.908;6.962;2024-01-11T01:09:18;35.05;;;19.10;;
44486;SDS011;30191;50.908;6.962;2024-01-11T01:11:43;31.55;;;18.30;;
44486;SDS011;30191;50.908;6.962;2024-01-11T01:14:09;30.15;;;17.98;;
44486;SDS011;30191;50.908;6.962;2024-01-11T01:16:35;32.15;;;18.48;;
44486;SDS011;30191;50.908;6.962;2024-01-11T01:19:00;29.02;;;18.23;;
44486;SDS011;30191;50.908;6.962;2024-01-11T01:21:26;30.40;;;17.95;;
44486;SDS011;30191;50.908;6.962;2024-01-11T01:23:53;36.08;;;18.65;;
44486;SDS011;30191;50.908;6.962;2024-01-11T01:26:18;31.48;;;18.27;;
44486;SDS011;30191;50.908;6.962;2024-01-11T01:28:45;29.60;;;18.35;;
44486;SDS011;30191;50.908;6.962;2024-01-11T01:31:11;32.28;;;18.05;;
44486;SDS011;30191;50.908;6.962;2024-01-11T01:33:37;35.55;;;19.05;;
44486;SDS011;30191;50.908;6.962;2024-01-11T01:36:07;33.55;;;18.88;;
44486;SDS011;30191;50.908;6.962;2024-01-11T01:38:34;33.03;;;18.85;;
44486;SDS011;30191;50.908;6.962;2024-01-11T01:41:00;33.20;;;18.92;;
44486;SDS011;30191;50.908;6.962;2024-01-11T01:43:26;33.65;;;18.48;;
44486;SDS011;30191;50.908;6.962;2024-01-11T01:45:51;35.78;;;19.58;;
44486;SDS011;30191;50.908;6.962;2024-01-11T01:48:17;33.05;;;19.23;;
44486;SDS011;30191;50.908;6.962;2024-01-11T01:50:44;32.88;;;18.58;;
44486;SDS011;30191;50.908;6.962;2024-01-11T01:53:15;37.47;;;19.25;;
44486;SDS011;30191;50.908;6.962;2024-01-11T01:55:42;35.78;;;18.75;;
44486;SDS011;30191;50.908;6.962;2024-01-11T01:58:08;33.55;;;18.50;;
44486;SDS011;30191;50.908;6.962;2024-01-11T02:00:34;35.22;;;18.60;;
44486;SDS011;30191;50.908;6.962;2024-01-11T02:03:00;33.90;;;19.83;;
44486;SDS011;30191;50.908;6.962;2024-01-11T02:05:26;34.35;;;19.42;;
44486;SDS011;30191;50.908;6.962;2024-01-11T02:07:51;37.10;;;18.70;;
44486;SDS011;30191;50.908;6.962;2024-01-11T02:10:17;36.95;;;20.48;;
44486;SDS011;30191;50.908;6.962;2024-01-11T02:12:44;39.55;;;20.02;;
44486;SDS011;30191;50.908;6.962;2024-01-11T02:15:10;38.17;;;19.60;;
44486;SDS011;30191;50.908;6.962;2024-01-11T02:17:35;39.67;;;20.15;;
44486;SDS011;30191;50.908;6.962;2024-01-11T02:20:01;37.15;;;19.02;;
44486;SDS011;30191;50.908;6.962;2024-01-11T02:22:29;34.50;;;20.05;;
44486;SDS011;30191;50.908;6.962;2024-01-11T02:25:04;34.35;;;20.38;;
44486;SDS011;30191;50.908;6.962;2024-01-11T02:27:30;36.92;;;19.65;;
44486;SDS011;30191;50.908;6.962;2024-01-11T02:29:55;38.92;;;19.98;;
44486;SDS011;30191;50.908;6.962;2024-01-11T02:32:21;43.20;;;20.85;;
44486;SDS011;30191;50.908;6.962;2024-01-11T02:34:47;34.03;;;19.17;;
44486;SDS011;30191;50.908;6.962;2024-01-11T02:37:13;38.58;;;20.45;;
44486;SDS011;30191;50.908;6.962;2024-01-11T02:39:39;37.20;;;19.95;;
44486;SDS011;30191;50.908;6.962;2024-01-11T02:42:05;36.30;;;19.55;;
44486;SDS011;30191;50.908;6.962;2024-01-11T02:44:31;39.00;;;20.08;;
44486;SDS011;30191;50.908;6.962;2024-01-11T02:46:56;36.58;;;19.88;;
44486;SDS011;30191;50.908;6.962;2024-01-11T02:49:22;33.90;;;19.42;;
44486;SDS011;30191;50.908;6.962;2024-01-11T02:51:47;33.80;;;19.50;;
44486;SDS011;30191;50.908;6.962;2024-01-11T02:54:13;37.95;;;20.15;;
44486;SDS011;30191;50.908;6.962;2024-01-11T02:56:39;38.03;;;21.10;;
44486;SDS011;30191;50.908;6.962;2024-01-11T02:59:04;34.80;;;19.65;;
44486;SDS011;30191;50.908;6.962;2024-01-11T03:01:30;37.80;;;20.92;;
44486;SDS011;30191;50.908;6.962;2024-01-11T03:03:56;42.40;;;20.10;;
44486;SDS011;30191;50.908;6.962;2024-01-11T03:06:22;41.95;;;22.00;;
44486;SDS011;30191;50.908;6.962;2024-01-11T03:08:48;36.47;;;20.23;;
44486;SDS011;30191;50.908;6.962;2024-01-11T03:11:14;38.45;;;20.65;;
44486;SDS011;30191;50.908;6.962;2024-01-11T03:13:41;37.90;;;19.75;;
44486;SDS011;30191;50.908;6.962;2024-01-11T03:16:06;35.38;;;20.25;;
44486;SDS011;30191;50.908;6.962;2024-01-11T03:18:32;36.42;;;20.08;;
44486;SDS011;30191;50.908;6.962;2024-01-11T03:20:58;35.33;;;19.83;;
44486;SDS011;30191;50.908;6.962;2024-01-11T03:23:23;35.15;;;18.73;;
44486;SDS011;30191;50.908;6.962;2024-01-11T03:25:49;36.25;;;19.98;;
44486;SDS011;30191;50.908;6.962;2024-01-11T03:28:15;42.28;;;20.73;;
44486;SDS011;30191;50.908;6.962;2024-01-11T03:30:40;36.03;;;19.77;;
44486;SDS011;30191;50.908;6.962;2024-01-11T03:33:06;35.58;;;19.08;;
44486;SDS011;30191;50.908;6.962;2024-01-11T03:35:31;35.10;;;20.13;;
44486;SDS011;30191;50.908;6.962;2024-01-11T03:37:57;33.83;;;19.25;;
44486;SDS011;30191;50.908;6.962;2024-01-11T03:40:23;37.75;;;20.25;;
44486;SDS011;30191;50.908;6.962;2024-01-11T03:42:48;37.17;;;20.85;;
44486;SDS011;30191;50.908;6.962;2024-01-11T03:45:17;33.15;;;19.40;;
44486;SDS011;30191;50.908;6.962;2024-01-11T03:47:44;37.08;;;20.40;;
44486;SDS011;30191;50.908;6.962;2024-01-11T03:50:09;34.65;;;20.13;;
44486;SDS011;30191;50.908;6.962;2024-01-11T03:52:35;40.75;;;20.95;;
44486;SDS011;30191;50.908;6.962;2024-01-11T03:55:01;48.95;;;21.38;;
44486;SDS011;30191;50.908;6.962;2024-01-11T03:57:26;39.47;;;21.33;;
44486;SDS011;30191;50.908;6.962;2024-01-11T03:59:52;36.53;;;20.55;;
44486;SDS011;30191;50.908;6.962;2024-01-11T04:02:18;38.58;;;21.13;;
44486;SDS011;30191;50.908;6.962;2024-01-11T04:04:44;40.20;;;20.90;;
44486;SDS011;30191;50.908;6.962;2024-01-11T04:07:09;36.78;;;21.02;;
44486;SDS011;30191;50.908;6.962;2024-01-11T04:09:36;34.03;;;20.20;;
44486;SDS011;30191;50.908;6.962;2024-01-11T04:12:03;33.30;;;19.88;;
44486;SDS011;30191;50.908;6.962;2024-01-11T04:14:29;34.95;;;20.35;;
44486;SDS011;30191;50.908;6.962;2024-01-11T04:16:55;38.47;;;21.75;;
44486;SDS011;30191;50.908;6.962;2024-01-11T04:19:20;35.47;;;20.92;;
44486;SDS011;30191;50.908;6.962;2024-01-11T04:21:46;41.90;;;20.58;;
44486;SDS011;30191;50.908;6.962;2024-01-11T04:24:12;41.55;;;21.13;;
44486;SDS011;30191;50.908;6.962;2024-01-11T04:26:37;38.13;;;20.67;;
44486;SDS011;30191;50.908;6.962;2024-01-11T04:29:03;35.33;;;19.45;;
44486;SDS011;30191;50.908;6.962;2024-01-11T04:31:28;38.65;;;20.95;;
44486;SDS011;30191;50.908;6.962;2024-01-11T04:33:54;36.72;;;19.75;;
44486;SDS011;30191;50.908;6.962;2024-01-11T04:36:20;39.40;;;20.58;;
44486;SDS011;30191;50.908;6.962;2024-01-11T04:38:45;39.35;;;20.45;;
44486;SDS011;30191;50.908;6.962;2024-01-11T04:41:11;35.47;;;20.45;;
44486;SDS011;30191;50.908;6.962;2024-01-11T04:43:41;33.67;;;19.92;;
44486;SDS011;30191;50.908;6.962;2024-01-11T04:46:15;38.15;;;20.88;;
44486;SDS011;30191;50.908;6.962;2024-01-11T04:48:42;37.63;;;19.83;;
44486;SDS011;30191;50.908;6.962;2024-01-11T04:51:07;38.88;;;19.95;;
44486;SDS011;30191;50.908;6.962;2024-01-11T04:53:35;35.47;;;18.67;;
44486;SDS011;30191;50.908;6.962;2024-01-11T04:56:08;42.35;;;20.80;;
44486;SDS011;30191;50.908;6.962;2024-01-11T04:58:35;37.58;;;19.15;;
44486;SDS011;30191;50.908;6.962;2024-01-11T05:01:03;41.50;;;20.27;;
44486;SDS011;30191;50.908;6.962;2024-01-11T05:03:30;35.00;;;19.77;;
44486;SDS011;30191;50.908;6.962;2024-01-11T05:05:56;35.20;;;19.73;;
44486;SDS011;30191;50.908;6.962;2024-01-11T05:08:23;34.50;;;20.05;;
44486;SDS011;30191;50.908;6.962;2024-01-11T05:10:49;34.72;;;19.73;;
44486;SDS011;30191;50.908;6.962;2024-01-11T05:13:15;35.97;;;20.15;;
44486;SDS011;30191;50.908;6.962;2024-01-11T05:15:41;35.13;;;19.92;;
44486;SDS011;30191;50.908;6.962;2024-01-11T05:18:06;36.35;;;19.90;;
44486;SDS011;30191;50.908;6.962;2024-01-11T05:20:32;34.45;;;18.75;;
44486;SDS011;30191;50.908;6.962;2024-01-11T05:22:57;39.72;;;20.67;;
44486;SDS011;30191;50.908;6.962;2024-01-11T05:25:23;36.83;;;20.42;;
44486;SDS011;30191;50.908;6.962;2024-01-11T05:27:49;37.88;;;19.65;;
44486;SDS011;30191;50.908;6.962;2024-01-11T05:30:14;46.75;;;20.52;;
44486;SDS011;30191;50.908;6.962;2024-01-11T05:32:40;33.70;;;18.50;;
44486;SDS011;30191;50.908;6.962;2024-01-11T05:35:06;32.60;;;19.63;;
44486;SDS011;30191;50.908;6.962;2024-01-11T05:37:31;32.92;;;19.90;;
44486;SDS011;30191;50.908;6.962;2024-01-11T05:39:57;35.30;;;20.08;;
44486;SDS011;30191;50.908;6.962;2024-01-11T05:42:23;35.00;;;19.45;;
44486;SDS011;30191;50.908;6.962;2024-01-11T05:44:50;35.53;;;19.85;;
44486;SDS011;30191;50.908;6.962;2024-01-11T05:47:16;36.92;;;19.02;;
44486;SDS011;30191;50.908;6.962;2024-01-11T05:49:42;34.05;;;20.08;;
44486;SDS011;30191;50.908;6.962;2024-01-11T05:52:07;36.22;;;20.05;;
44486;SDS011;30191;50.908;6.962;2024-01-11T05:54:33;34.47;;;19.73;;
44486;SDS011;30191;50.908;6.962;2024-01-11T05:56:59;34.63;;;18.95;;
44486;SDS011;30191;50.908;6.962;2024-01-11T05:59:24;33.10;;;19.95;;
44486;SDS011;30191;50.908;6.962;2024-01-11T06:01:51;32.60;;;18.35;;
44486;SDS011;30191;50.908;6.962;2024-01-11T06:04:16;33.22;;;18.27;;
44486;SDS011;30191;50.908;6.962;2024-01-11T06:06:42;33.80;;;20.08;;
44486;SDS011;30191;50.908;6.962;2024-01-11T06:09:08;35.53;;;19.73;;
44486;SDS011;30191;50.908;6.962;2024-01-11T06:11:35;38.47;;;19.85;;
44486;SDS011;30191;50.908;6.962;2024-01-11T06:14:00;35.08;;;19.88;;
44486;SDS011;30191;50.908;6.962;2024-01-11T06:16:27;35.70;;;19.63;;
44486;SDS011;30191;50.908;6.962;2024-01-11T06:18:53;32.78;;;19.75;;
44486;SDS011;30191;50.908;6.962;2024-01-11T06:21:19;35.78;;;20.75;;
44486;SDS011;30191;50.908;6.962;2024-01-11T06:23:44;37.97;;;20.02;;
44486;SDS011;30191;50.908;6.962;2024-01-11T06:26:10;41.00;;;20.23;;
44486;SDS011;30191;50.908;6.962;2024-01-11T06:28:36;36.20;;;19.10;;
44486;SDS011;30191;50.908;6.962;2024-01-11T06:31:01;34.70;;;19.45;;
44486;SDS011;30191;50.908;6.962;2024-01-11T06:33:28;38.47;;;21.50;;
44486;SDS011;30191;50.908;6.962;2024-01-11T06:35:53;35.17;;;19.80;;
44486;SDS011;30191;50.908;6.962;2024-01-11T06:38:20;39.10;;;20.17;;
44486;SDS011;30191;50.908;6.962;2024-01-11T06:40:46;37.83;;;20.17;;
44486;SDS011;30191;50.908;6.962;2024-01-11T06:43:12;39.95;;;20.90;;
44486;SDS011;30191;50.908;6.962;2024-01-11T06:45:38;39.83;;;21.65;;
44486;SDS011;30191;50.908;6.962;2024-01-11T06:48:04;39.55;;;20.88;;
44486;SDS011;30191;50.908;6.962;2024-01-11T06:50:30;40.35;;;20.58;;
44486;SDS011;30191;50.908;6.962;2024-01-11T06:52:56;37.03;;;20.45;;
44486;SDS011;30191;50.908;6.962;2024-01-11T06:55:21;40.53;;;20.77;;
44486;SDS011;30191;50.908;6.962;2024-01-11T06:57:47;36.97;;;20.08;;
44486;SDS011;30191;50.908;6.962;2024-01-11T07:00:13;38.38;;;20.15;;
44486;SDS011;30191;50.908;6.962;2024-01-11T07:02:39;34.72;;;19.88;;
44486;SDS011;30191;50.908;6.962;2024-01-11T07:05:07;35.63;;;20.23;;
44486;SDS011;30191;50.908;6.962;2024-01-11T07:07:33;35.53;;;19.88;;
44486;SDS011;30191;50.908;6.962;2024-01-11T07:09:59;35.95;;;19.92;;
44486;SDS011;30191;50.908;6.962;2024-01-11T07:12:24;39.97;;;19.88;;
44486;SDS011;30191;50.908;6.962;2024-01-11T07:14:50;36.70;;;19.58;;
44486;SDS011;30191;50.908;6.962;2024-01-11T07:17:16;39.95;;;20.38;;
44486;SDS011;30191;50.908;6.962;2024-01-11T07:19:42;32.22;;;19.92;;
44486;SDS011;30191;50.908;6.962;2024-01-11T07:22:08;37.67;;;20.65;;
44486;SDS011;30191;50.908;6.962;2024-01-11T07:24:34;38.22;;;19.50;;
44486;SDS011;30191;50.908;6.962;2024-01-11T07:27:05;39.13;;;20.90;;
44486;SDS011;30191;50.908;6.962;2024-01-11T07:29:31;36.70;;;21.30;;
44486;SDS011;30191;50.908;6.962;2024-01-11T07:31:57;36.67;;;19.63;;
44486;SDS011;30191;50.908;6.962;2024-01-11T07:34:23;36.78;;;19.15;;
44486;SDS011;30191;50.908;6.962;2024-01-11T07:36:49;34.45;;;19.92;;
44486;SDS011;30191;50.908;6.962;2024-01-11T07:39:15;41.45;;;21.75;;
44486;SDS011;30191;50.908;6.962;2024-01-11T07:41:41;41.42;;;21.23;;
44486;SDS011;30191;50.908;6.962;2024-01-11T07:44:07;38.63;;;20.33;;
44486;SDS011;30191;50.908;6.962;2024-01-11T07:46:32;40.88;;;21.05;;
44486;SDS011;30191;50.908;6.962;2024-01-11T07:48:58;40.97;;;21.33;;
44486;SDS011;30191;50.908;6.962;2024-01-11T07:51:24;35.75;;;21.05;;
44486;SDS011;30191;50.908;6.962;2024-01-11T07:53:50;43.28;;;22.95;;
44486;SDS011;30191;50.908;6.962;2024-01-11T07:56:15;42.13;;;22.42;;
44486;SDS011;30191;50.908;6.962;2024-01-11T07:58:42;38.35;;;20.10;;
44486;SDS011;30191;50.908;6.962;2024-01-11T08:01:08;42.53;;;21.95;;
44486;SDS011;30191;50.908;6.962;2024-01-11T08:03:34;46.28;;;23.33;;
44486;SDS011;30191;50.908;6.962;2024-01-11T08:06:00;48.08;;;23.13;;
44486;SDS011;30191;50.908;6.962;2024-01-11T08:08:26;46.67;;;22.95;;
44486;SDS011;30191;50.908;6.962;2024-01-11T08:10:52;43.95;;;23.20;;
44486;SDS011;30191;50.908;6.962;2024-01-11T08:13:18;56.38;;;26.27;;
44486;SDS011;30191;50.908;6.962;2024-01-11T08:15:46;44.85;;;23.40;;
44486;SDS011;30191;50.908;6.962;2024-01-11T08:18:12;51.08;;;23.48;;
44486;SDS011;30191;50.908;6.962;2024-01-11T08:20:39;40.60;;;22.27;;
44486;SDS011;30191;50.908;6.962;2024-01-11T08:23:04;47.67;;;23.48;;
44486;SDS011;30191;50.908;6.962;2024-01-11T08:25:30;47.47;;;24.00;;
44486;SDS011;30191;50.908;6.962;2024-01-11T08:27:55;43.78;;;23.40;;
44486;SDS011;30191;50.908;6.962;2024-01-11T08:30:21;49.50;;;25.58;;
44486;SDS011;30191;50.908;6.962;2024-01-11T08:32:47;55.97;;;25.38;;
44486;SDS011;30191;50.908;6.962;2024-01-11T08:35:13;42.95;;;23.90;;
44486;SDS011;30191;50.908;6.962;2024-01-11T08:37:39;47.15;;;23.65;;
44486;SDS011;30191;50.908;6.962;2024-01-11T08:40:05;43.15;;;22.42;;
44486;SDS011;30191;50.908;6.962;2024-01-11T08:42:32;44.15;;;22.30;;
44486;SDS011;30191;50.908;6.962;2024-01-11T08:44:57;45.13;;;22.10;;
44486;SDS011;30191;50.908;6.962;2024-01-11T08:47:23;40.47;;;22.23;;
44486;SDS011;30191;50.908;6.962;2024-01-11T08:49:49;39.92;;;21.05;;
44486;SDS011;30191;50.908;6.962;2024-01-11T08:52:15;36.97;;;21.33;;
44486;SDS011;30191;50.908;6.962;2024-01-11T08:54:40;37.17;;;21.10;;
44486;SDS011;30191;50.908;6.962;2024-01-11T08:57:06;39.42;;;20.95;;
44486;SDS011;30191;50.908;6.962;2024-01-11T08:59:32;39.92;;;21.65;;
44486;SDS011;30191;50.908;6.962;2024-01-11T09:01:57;45.22;;;23.23;;
44486;SDS011;30191;50.908;6.962;2024-01-11T09:04:23;39.70;;;20.63;;
44486;SDS011;30191;50.908;6.962;2024-01-11T09:06:49;39.63;;;21.92;;
44486;SDS011;30191;50.908;6.962;2024-01-11T09:09:15;44.03;;;21.85;;
44486;SDS011;30191;50.908;6.962;2024-01-11T09:11:42;46.83;;;21.92;;
44486;SDS011;30191;50.908;6.962;2024-01-11T09:14:07;41.72;;;22.80;;
44486;SDS011;30191;50.908;6.962;2024-01-11T09:16:36;40.33;;;22.50;;
44486;SDS011;30191;50.908;6.962;2024-01-11T09:19:01;42.15;;;23.80;;
44486;SDS011;30191;50.908;6.962;2024-01-11T09:21:27;48.05;;;22.60;;
44486;SDS011;30191;50.908;6.962;2024-01-11T09:23:53;45.53;;;24.80;;
44486;SDS011;30191;50.908;6.962;2024-01-11T09:26:19;42.13;;;22.60;;
44486;SDS011;30191;50.908;6.962;2024-01-11T09:28:44;45.33;;;23.60;;
44486;SDS011;30191;50.908;6.962;2024-01-11T09:31:10;44.95;;;23.52;;
44486;SDS011;30191;50.908;6.962;2024-01-11T09:33:36;42.55;;;23.88;;
44486;SDS011;30191;50.908;6.962;2024-01-11T09:36:03;46.75;;;22.05;;
44486;SDS011;30191;50.908;6.962;2024-01-11T09:38:28;46.50;;;23.77;;
44486;SDS011;30191;50.908;6.962;2024-01-11T09:41:07;45.47;;;24.25;;
44486;SDS011;30191;50.908;6.962;2024-01-11T09:43:34;46.75;;;24.02;;
44486;SDS011;30191;50.908;6.962;2024-01-11T09:46:03;43.20;;;23.98;;
44486;SDS011;30191;50.908;6.962;2024-01-11T09:48:33;44.45;;;22.83;;
44486;SDS011;30191;50.908;6.962;2024-01-11T09:51:01;43.60;;;23.75;;
44486;SDS011;30191;50.908;6.962;2024-01-11T09:53:28;48.20;;;23.25;;
44486;SDS011;30191;50.908;6.962;2024-01-11T09:55:56;49.30;;;24.90;;
44486;SDS011;30191;50.908;6.962;2024-01-11T09:58:26;42.40;;;24.17;;
44486;SDS011;30191;50.908;6.962;2024-01-11T10:00:54;40.72;;;23.13;;
44486;SDS011;30191;50.908;6.962;2024-01-11T10:03:23;42.60;;;23.73;;
44486;SDS011;30191;50.908;6.962;2024-01-11T10:05:49;43.30;;;24.95;;
44486;SDS011;30191;50.908;6.962;2024-01-11T10:08:19;43.63;;;23.13;;
44486;SDS011;30191;50.908;6.962;2024-01-11T10:10:47;42.35;;;24.83;;
44486;SDS011;30191;50.908;6.962;2024-01-11T10:13:13;50.45;;;25.95;;
44486;SDS011;30191;50.908;6.962;2024-01-11T10:15:39;44.45;;;24.85;;
44486;SDS011;30191;50.908;6.962;2024-01-11T10:18:05;42.55;;;23.70;;
44486;SDS011;30191;50.908;6.962;2024-01-11T10:20:30;50.92;;;24.38;;
44486;SDS011;30191;50.908;6.962;2024-01-11T10:22:57;56.47;;;26.20;;
44486;SDS011;30191;50.908;6.962;2024-01-11T10:25:23;47.15;;;26.58;;
44486;SDS011;30191;50.908;6.962;2024-01-11T10:27:49;55.35;;;28.00;;
44486;SDS011;30191;50.908;6.962;2024-01-11T10:30:16;47.67;;;24.63;;
44486;SDS011;30191;50.908;6.962;2024-01-11T10:32:43;52.58;;;26.70;;
44486;SDS011;30191;50.908;6.962;2024-01-11T10:35:09;46.22;;;25.88;;
44486;SDS011;30191;50.908;6.962;2024-01-11T10:37:35;46.97;;;25.83;;
44486;SDS011;30191;50.908;6.962;2024-01-11T10:40:04;49.22;;;26.35;;
44486;SDS011;30191;50.908;6.962;2024-01-11T10:42:44;53.67;;;27.92;;
44486;SDS011;30191;50.908;6.962;2024-01-11T10:45:15;39.50;;;24.85;;
44486;SDS011;30191;50.908;6.962;2024-01-11T10:48:24;87.57;;;27.52;;
44486;SDS011;30191;50.908;6.962;2024-01-11T10:50:44;50.92;;;26.35;;
44486;SDS011;30191;50.908;6.962;2024-01-11T10:56:10;46.53;;;26.80;;
44486;SDS011;30191;50.908;6.962;2024-01-11T10:58:41;48.77;;;26.93;;
44486;SDS011;30191;50.908;6.962;2024-01-11T11:01:08;46.30;;;27.02;;
44486;SDS011;30191;50.908;6.962;2024-01-11T11:03:38;51.83;;;26.70;;
44486;SDS011;30191;50.908;6.962;2024-01-11T11:06:04;52.30;;;27.90;;
44486;SDS011;30191;50.908;6.962;2024-01-11T11:08:34;44.05;;;26.48;;
44486;SDS011;30191;50.908;6.962;2024-01-11T11:11:02;49.35;;;27.70;;
44486;SDS011;30191;50.908;6.962;2024-01-11T11:13:30;48.33;;;27.85;;
44486;SDS011;30191;50.908;6.962;2024-01-11T11:15:57;55.50;;;28.27;;
44486;SDS011;30191;50.908;6.962;2024-01-11T11:18:22;53.85;;;27.40;;
44486;SDS011;30191;50.908;6.962;2024-01-11T11:20:49;49.80;;;27.40;;
44486;SDS011;30191;50.908;6.962;2024-01-11T11:23:16;57.40;;;28.98;;
44486;SDS011;30191;50.908;6.962;2024-01-11T11:25:46;49.15;;;26.17;;
44486;SDS011;30191;50.908;6.962;2024-01-11T11:28:14;47.50;;;26.77;;
44486;SDS011;30191;50.908;6.962;2024-01-11T11:30:43;52.15;;;27.42;;
44486;SDS011;30191;50.908;6.962;2024-01-11T11:35:54;53.25;;;28.55;;
44486;SDS011;30191;50.908;6.962;2024-01-11T11:38:23;60.40;;;30.13;;
44486;SDS011;30191;50.908;6.962;2024-01-11T11:40:51;53.95;;;29.10;;
44486;SDS011;30191;50.908;6.962;2024-01-11T11:43:18;54.53;;;28.83;;
44486;SDS011;30191;50.908;6.962;2024-01-11T11:45:49;57.50;;;30.00;;
44486;SDS011;30191;50.908;6.962;2024-01-11T11:51:12;55.25;;;29.77;;
44486;SDS011;30191;50.908;6.962;2024-01-11T11:53:42;52.85;;;29.35;;
44486;SDS011;30191;50.908;6.962;2024-01-11T11:56:08;55.38;;;29.52;;
44486;SDS011;30191;50.908;6.962;2024-01-11T11:58:35;55.63;;;29.38;;
44486;SDS011;30191;50.908;6.962;2024-01-11T12:01:02;52.45;;;27.88;;
44486;SDS011;30191;50.908;6.962;2024-01-11T12:03:29;51.78;;;27.77;;
44486;SDS011;30191;50.908;6.962;2024-01-11T12:05:58;53.70;;;27.83;;
44486;SDS011;30191;50.908;6.962;2024-01-11T12:08:25;48.05;;;26.92;;
44486;SDS011;30191;50.908;6.962;2024-01-11T12:10:52;43.28;;;26.65;;
44486;SDS011;30191;50.908;6.962;2024-01-11T12:13:18;43.95;;;26.42;;
44486;SDS011;30191;50.908;6.962;2024-01-11T12:15:44;47.20;;;26.38;;
44486;SDS011;30191;50.908;6.962;2024-01-11T12:18:10;45.30;;;25.92;;
44486;SDS011;30191;50.908;6.962;2024-01-11T12:20:35;48.33;;;26.08;;
44486;SDS011;30191;50.908;6.962;2024-01-11T12:23:02;48.35;;;26.63;;
44486;SDS011;30191;50.908;6.962;2024-01-11T12:25:28;44.08;;;26.05;;
44486;SDS011;30191;50.908;6.962;2024-01-11T12:27:54;53.70;;;27.67;;
44486;SDS011;30191;50.908;6.962;2024-01-11T12:30:25;47.03;;;26.52;;
44486;SDS011;30191;50.908;6.962;2024-01-11T12:32:51;51.28;;;26.85;;
44486;SDS011;30191;50.908;6.962;2024-01-11T12:35:20;43.90;;;25.63;;
44486;SDS011;30191;50.908;6.962;2024-01-11T12:37:55;54.42;;;26.63;;
44486;SDS011;30191;50.908;6.962;2024-01-11T12:40:25;46.55;;;26.77;;
44486;SDS011;30191;50.908;6.962;2024-01-11T12:42:56;46.03;;;25.30;;
44486;SDS011;30191;50.908;6.962;2024-01-11T12:45:23;48.35;;;24.60;;
44486;SDS011;30191;50.908;6.962;2024-01-11T12:47:51;44.95;;;24.60;;
44486;SDS011;30191;50.908;6.962;2024-01-11T12:50:17;41.90;;;25.13;;
44486;SDS011;30191;50.908;6.962;2024-01-11T12:52:43;43.47;;;25.10;;
44486;SDS011;30191;50.908;6.962;2024-01-11T12:55:17;48.72;;;27.67;;
44486;SDS011;30191;50.908;6.962;2024-01-11T12:57:44;43.08;;;26.95;;
44486;SDS011;30191;50.908;6.962;2024-01-11T13:00:10;46.30;;;26.38;;
44486;SDS011;30191;50.908;6.962;2024-01-11T13:02:36;42.30;;;26.33;;
44486;SDS011;30191;50.908;6.962;2024-01-11T13:05:03;41.22;;;25.10;;
44486;SDS011;30191;50.908;6.962;2024-01-11T13:07:30;41.50;;;24.95;;
44486;SDS011;30191;50.908;6.962;2024-01-11T13:09:56;40.88;;;24.75;;
44486;SDS011;30191;50.908;6.962;2024-01-11T13:12:21;45.60;;;26.23;;
44486;SDS011;30191;50.908;6.962;2024-01-11T13:14:47;45.00;;;26.55;;
44486;SDS011;30191;50.908;6.962;2024-01-11T13:17:13;48.75;;;27.83;;
44486;SDS011;30191;50.908;6.962;2024-01-11T13:19:39;48.08;;;27.17;;
44486;SDS011;30191;50.908;6.962;2024-01-11T13:22:05;46.70;;;26.45;;
44486;SDS011;30191;50.908;6.962;2024-01-11T13:24:30;48.53;;;26.40;;
44486;SDS011;30191;50.908;6.962;2024-01-11T13:26:56;41.13;;;25.20;;
44486;SDS011;30191;50.908;6.962;2024-01-11T13:29:22;43.38;;;25.90;;
44486;SDS011;30191;50.908;6.962;2024-01-11T13:31:47;44.30;;;26.20;;
44486;SDS011;30191;50.908;6.962;2024-01-11T13:34:13;42.20;;;25.70;;
44486;SDS011;30191;50.908;6.962;2024-01-11T13:36:38;47.40;;;25.85;;
44486;SDS011;30191;50.908;6.962;2024-01-11T13:39:04;44.40;;;26.95;;
44486;SDS011;30191;50.908;6.962;2024-01-11T13:41:33;46.75;;;26.67;;
44486;SDS011;30191;50.908;6.962;2024-01-11T13:43:58;49.55;;;27.88;;
44486;SDS011;30191;50.908;6.962;2024-01-11T13:46:25;50.15;;;27.40;;
44486;SDS011;30191;50.908;6.962;2024-01-11T13:48:50;48.63;;;27.33;;
44486;SDS011;30191;50.908;6.962;2024-01-11T13:51:16;47.35;;;29.13;;
44486;SDS011;30191;50.908;6.962;2024-01-11T13:53:42;47.20;;;28.08;;
44486;SDS011;30191;50.908;6.962;2024-01-11T13:56:08;47.90;;;28.67;;
44486;SDS011;30191;50.908;6.962;2024-01-11T13:58:34;50.70;;;27.25;;
44486;SDS011;30191;50.908;6.962;2024-01-11T14:01:00;49.58;;;28.48;;
44486;SDS011;30191;50.908;6.962;2024-01-11T14:03:25;45.08;;;26.92;;
44486;SDS011;30191;50.908;6.962;2024-01-11T14:05:51;45.15;;;27.52;;
44486;SDS011;30191;50.908;6.962;2024-01-11T14:08:17;45.45;;;28.23;;
44486;SDS011;30191;50.908;6.962;2024-01-11T14:10:42;47.45;;;27.92;;
44486;SDS011;30191;50.908;6.962;2024-01-11T14:13:08;44.45;;;27.42;;
44486;SDS011;30191;50.908;6.962;2024-01-11T14:15:34;53.30;;;28.38;;
44486;SDS011;30191;50.908;6.962;2024-01-11T14:18:00;48.03;;;27.02;;
44486;SDS011;30191;50.908;6.962;2024-01-11T14:20:25;48.50;;;26.90;;
44486;SDS011;30191;50.908;6.962;2024-01-11T14:22:52;46.67;;;26.77;;
44486;SDS011;30191;50.908;6.962;2024-01-11T14:25:18;46.10;;;25.98;;